RJST(METAR)
01/24 01:00
METAR RJST 231600Z 27007KT 9999 FEW015 SCT050 M04/M06 Q1013 RMK
1CU015 3CU050 A2993=
戻る
トップページへ戻る
IMOC Co,.Ltd.